Time;durP1;ratioP1;P1;durP2;ratioP2;P2;SDS_P1;SDS_P2;PMS_P1;PMS_P2;Temp;Humidity;BMP_temperature;BMP_pressure;BME280_temperature;BME280_humidity;BME280_pressure;Samples;Min_cycle;Max_cycle;Signal;HPM_P1;HPM_P2
2021/12/25 00:00:45;;;;;;;;;48.25;41.00;;;;;-147.17;100.00;49914.91;4955253;28;51024;-58
2021/12/25 00:03:11;;;;;;;;;46.25;39.25;;;;;-147.17;100.00;49910.97;4964841;28;50868;-58
2021/12/25 00:05:36;;;;;;;;;48.25;40.00;;;;;-147.17;100.00;49899.16;4955589;28;50866;-58
2021/12/25 00:08:02;;;;;;;;;46.00;39.00;;;;;-147.17;100.00;49926.69;4961678;28;51125;-58
2021/12/25 00:10:30;;;;;;;;;43.25;38.25;;;;;-147.17;100.00;49885.38;4960196;28;51035;-58
2021/12/25 00:12:56;;;;;;;;;39.75;36.75;;;;;-147.17;100.00;49928.66;4969699;28;51095;-58
2021/12/25 00:15:21;;;;;;;;;42.25;36.50;;;;;-147.17;100.00;49891.28;4974501;28;51087;-58
2021/12/25 00:17:48;;;;;;;;;40.50;36.00;;;;;-147.17;100.00;49930.63;4972526;28;52784;-58
2021/12/25 00:20:13;;;;;;;;;44.50;37.75;;;;;-147.17;100.00;49901.13;4974426;28;51202;-58
2021/12/25 00:22:39;;;;;;;;;39.75;35.25;;;;;-147.17;100.00;49918.84;4967340;28;51029;-58
2021/12/25 00:25:05;;;;;;;;;40.50;35.75;;;;;-147.17;100.00;49930.63;4974278;28;51134;-58
2021/12/25 00:27:45;;;;;;;;;40.75;37.00;;;;;-147.17;100.00;49912.94;4973704;28;52354;-58
2021/12/25 00:30:18;;;;;;;;;33.00;32.50;;;;;-147.17;100.00;49895.22;4972805;28;50975;-58
2021/12/25 00:33:04;;;;;;;;;39.00;36.00;;;;;-147.17;100.00;49889.31;4970819;28;51236;-58
2021/12/25 00:35:29;;;;;;;;;39.25;36.00;;;;;-147.17;100.00;49910.97;4975074;28;51560;-58
2021/12/25 00:37:55;;;;;;;;;40.50;36.00;;;;;-147.17;100.00;49899.16;4971574;28;51645;-58
2021/12/25 00:40:20;;;;;;;;;35.00;33.25;;;;;-147.17;100.00;49936.53;4957879;28;51106;-58
2021/12/25 00:42:46;;;;;;;;;36.75;31.00;;;;;-147.17;100.00;49899.16;4968005;28;51066;-58
2021/12/25 00:45:12;;;;;;;;;38.00;34.50;;;;;-147.17;100.00;49932.59;4972933;28;51190;-59
2021/12/25 00:47:37;;;;;;;;;37.25;35.50;;;;;-147.17;100.00;49938.50;4972973;28;51122;-58
2021/12/25 00:50:03;;;;;;;;;37.25;34.25;;;;;-147.17;100.00;49914.91;4973963;28;51197;-58
2021/12/25 00:52:29;;;;;;;;;37.50;34.25;;;;;-147.17;100.00;49891.28;4970898;28;51098;-58
2021/12/25 00:54:54;;;;;;;;;36.25;34.00;;;;;-147.17;100.00;49883.41;4958667;28;51051;-58
2021/12/25 00:57:20;;;;;;;;;36.25;34.25;;;;;-147.17;100.00;49909.00;4962574;28;51794;-58
2021/12/25 00:59:45;;;;;;;;;36.25;32.00;;;;;-147.17;100.00;49910.97;4958404;28;51036;-58
2021/12/25 01:02:11;;;;;;;;;37.00;35.00;;;;;-147.17;100.00;49891.28;4962825;28;51342;-58
2021/12/25 01:04:36;;;;;;;;;35.00;32.75;;;;;-147.17;100.00;49916.88;4981881;28;51039;-58
2021/12/25 01:07:02;;;;;;;;;35.00;34.00;;;;;-147.17;100.00;49897.19;4980893;28;51797;-58
2021/12/25 01:09:27;;;;;;;;;38.00;33.25;;;;;-147.17;100.00;49887.34;4954228;28;50992;-58
2021/12/25 01:11:53;;;;;;;;;37.50;34.75;;;;;-147.17;100.00;49855.84;4958366;28;51070;-58
2021/12/25 01:14:42;;;;;;;;;39.50;34.50;;;;;-147.17;100.00;49879.47;4975964;28;51130;-58
2021/12/25 01:41:18;;;;;;;;;34.75;30.00;;;;;-147.17;100.00;49926.69;4955048;28;51254;-58
2021/12/25 01:49:15;;;;;;;;;24.00;22.75;;;;;-147.17;100.00;49909.00;4972854;28;51190;-58
2021/12/25 01:51:40;;;;;;;;;31.00;27.75;;;;;-147.17;100.00;49920.81;4971813;28;51028;-58
2021/12/25 01:54:06;;;;;;;;;25.25;24.00;;;;;-147.17;100.00;49891.28;4959695;28;51009;-58
2021/12/25 01:56:31;;;;;;;;;25.50;25.25;;;;;-147.17;100.00;49936.53;4959242;28;51191;-58
2021/12/25 01:58:57;;;;;;;;;25.75;24.00;;;;;-147.17;100.00;49883.41;4972459;28;50998;-59
2021/12/25 02:01:22;;;;;;;;;25.50;23.75;;;;;-147.17;100.00;49920.81;4957649;28;51241;-58
2021/12/25 02:03:48;;;;;;;;;26.25;22.75;;;;;-147.17;100.00;49893.25;4970371;28;51175;-57
2021/12/25 02:06:13;;;;;;;;;24.25;24.00;;;;;-147.17;100.00;49932.59;4959220;28;51185;-57
2021/12/25 02:08:42;;;;;;;;;24.25;23.00;;;;;-147.17;100.00;49922.78;4981504;28;51651;-57
2021/12/25 02:11:10;;;;;;;;;28.25;26.00;;;;;-147.17;100.00;49924.72;4952507;28;51168;-59
2021/12/25 02:13:36;;;;;;;;;23.25;23.00;;;;;-147.17;100.00;49958.19;4967980;28;51089;-59
2021/12/25 02:16:06;;;;;;;;;26.00;23.00;;;;;-147.17;100.00;49922.78;4971822;28;51012;-59
2021/12/25 02:18:58;;;;;;;;;25.25;22.75;;;;;-147.17;100.00;49922.78;4971172;28;51636;-59
2021/12/25 02:21:31;;;;;;;;;27.75;27.25;;;;;-147.17;100.00;49893.25;4970992;28;51004;-59
2021/12/25 02:23:57;;;;;;;;;27.00;25.50;;;;;-147.17;100.00;49899.16;4980849;28;51121;-59
2021/12/25 02:26:24;;;;;;;;;23.75;21.25;;;;;-147.17;100.00;49934.56;4971909;28;51161;-59
2021/12/25 02:28:50;;;;;;;;;22.25;21.00;;;;;-147.17;100.00;49932.59;4971277;28;52937;-59
2021/12/25 02:31:17;;;;;;;;;23.00;21.25;;;;;-147.17;100.00;49934.56;4971007;28;51007;-59
2021/12/25 02:33:43;;;;;;;;;19.75;19.25;;;;;-147.17;100.00;49905.06;4967838;28;51203;-59
2021/12/25 02:36:11;;;;;;;;;24.25;22.25;;;;;-147.17;100.00;49914.91;4971342;28;51185;-59
2021/12/25 02:38:37;;;;;;;;;22.25;21.00;;;;;-147.17;100.00;49918.84;4971378;28;51104;-59
2021/12/25 02:41:03;;;;;;;;;22.50;21.00;;;;;-147.17;100.00;49948.34;4972705;28;50982;-58
2021/12/25 02:43:30;;;;;;;;;21.25;20.25;;;;;-147.17;100.00;49926.69;4969171;28;51220;-58
2021/12/25 02:46:01;;;;;;;;;28.25;26.50;;;;;-147.17;100.00;49924.72;4961003;28;51119;-59
2021/12/25 02:48:27;;;;;;;;;20.25;20.00;;;;;-147.17;100.00;49885.38;4952903;28;52683;-58
2021/12/25 02:50:52;;;;;;;;;19.00;18.00;;;;;-147.17;100.00;49910.97;4954718;28;51146;-58
2021/12/25 02:53:18;;;;;;;;;23.00;22.00;;;;;-147.17;100.00;49930.63;4956143;28;50992;-58
2021/12/25 02:55:45;;;;;;;;;23.75;21.50;;;;;-147.17;100.00;49928.66;4985957;28;51162;-59
2021/12/25 02:58:11;;;;;;;;;22.00;21.00;;;;;-147.17;100.00;49942.44;4970243;28;51626;-58
2021/12/25 03:00:47;;;;;;;;;22.00;20.00;;;;;-147.17;100.00;49938.50;4966777;28;50981;-58
2021/12/25 03:03:14;;;;;;;;;23.25;20.75;;;;;-147.17;100.00;49891.28;4974481;28;51253;-59
2021/12/25 03:05:39;;;;;;;;;20.00;20.00;;;;;-147.17;100.00;49920.81;4975878;28;51093;-58
2021/12/25 03:08:07;;;;;;;;;19.25;18.25;;;;;-147.17;100.00;49926.69;4974204;28;52969;-57
2021/12/25 03:10:34;;;;;;;;;18.75;16.50;;;;;-147.17;100.00;49914.91;4973139;28;51029;-57
2021/12/25 03:15:45;;;;;;;;;17.75;15.25;;;;;-147.17;100.00;49930.63;4961166;28;51609;-58
2021/12/25 03:18:24;;;;;;;;;14.75;14.25;;;;;-147.17;100.00;49946.38;4961495;28;51109;-59
2021/12/25 03:20:53;;;;;;;;;18.25;15.50;;;;;-147.17;100.00;49973.94;4955544;28;51105;-59
2021/12/25 03:23:21;;;;;;;;;14.00;14.00;;;;;-147.17;100.00;49956.22;4959904;28;51415;-58
2021/12/25 03:25:50;;;;;;;;;14.00;13.75;;;;;-147.17;100.00;49932.59;4973390;28;51137;-59
2021/12/25 03:28:17;;;;;;;;;20.50;17.75;;;;;-147.17;100.00;49940.47;4968761;28;51144;-59
2021/12/25 03:30:44;;;;;;;;;15.75;15.75;;;;;-147.17;100.00;49971.97;4975025;28;51193;-59
2021/12/25 03:33:19;;;;;;;;;15.00;13.75;;;;;-147.17;100.00;49938.50;4973338;28;50985;-60
2021/12/25 03:35:45;;;;;;;;;15.00;13.25;;;;;-147.17;100.00;49940.47;4975219;28;51059;-59
2021/12/25 03:38:13;;;;;;;;;16.00;13.75;;;;;-147.17;100.00;49952.28;4963345;28;51134;-58
2021/12/25 03:40:39;;;;;;;;;16.25;14.00;;;;;-147.17;100.00;49940.47;4969735;28;51158;-59
2021/12/25 03:43:05;;;;;;;;;16.00;15.00;;;;;-147.17;100.00;49938.50;4972574;28;51025;-59
2021/12/25 03:45:32;;;;;;;;;15.75;14.50;;;;;-147.17;100.00;49899.16;4961024;28;51416;-58
2021/12/25 03:48:14;;;;;;;;;14.00;13.33;;;;;-147.17;100.00;49930.63;4941045;28;53243;-58
2021/12/25 03:53:38;;;;;;;;;14.25;14.25;;;;;-147.17;100.00;49936.53;4956993;28;51249;-58
2021/12/25 03:58:50;;;;;;;;;16.00;14.33;;;;;-147.17;100.00;49977.88;4972591;28;50826;-57
2021/12/25 04:01:30;;;;;;;;;13.25;12.50;;;;;-147.17;100.00;49956.22;4954612;28;50918;-59
2021/12/25 04:04:21;;;;;;;;;16.75;15.50;;;;;-147.17;100.00;49977.88;4964483;28;51245;-59
2021/12/25 04:07:13;;;;;;;;;18.50;16.25;;;;;-147.17;100.00;49968.03;4974373;28;51286;-57
2021/12/25 04:09:38;;;;;;;;;19.25;17.00;;;;;-147.17;100.00;49944.41;4963275;28;51692;-57
2021/12/25 04:12:10;;;;;;;;;20.75;17.50;;;;;-147.17;100.00;49962.13;4986399;28;51292;-57
2021/12/25 04:14:36;;;;;;;;;20.00;18.50;;;;;-147.17;100.00;49966.06;4966011;28;51305;-58
2021/12/25 04:17:02;;;;;;;;;15.25;15.00;;;;;-147.17;100.00;49968.03;4970174;28;51353;-58
2021/12/25 04:19:28;;;;;;;;;14.00;13.00;;;;;-147.17;100.00;49958.19;4974682;28;51046;-58
2021/12/25 04:24:20;;;;;;;;;17.75;17.00;;;;;-147.17;100.00;49926.69;4972556;28;51193;-58
2021/12/25 04:26:47;;;;;;;;;15.50;14.75;;;;;-147.17;100.00;49954.25;4973361;28;51283;-58
2021/12/25 05:02:18;;;;;;;;;15.75;14.25;;;;;-147.17;100.00;49909.00;4972612;28;51156;-58
2021/12/25 05:04:58;;;;;;;;;18.50;17.25;;;;;-147.17;100.00;49881.44;4972741;28;51038;-58
2021/12/25 05:07:23;;;;;;;;;19.00;19.00;;;;;-147.17;100.00;49885.38;4972892;28;51099;-58
2021/12/25 05:09:49;;;;;;;;;18.75;15.00;;;;;-147.17;100.00;49918.84;4973438;28;51277;-59
2021/12/25 05:12:14;;;;;;;;;19.00;18.00;;;;;-147.17;100.00;49909.00;4963936;28;52156;-58
2021/12/25 05:14:40;;;;;;;;;20.00;19.50;;;;;-147.17;100.00;49881.44;4958823;28;51020;-58
2021/12/25 05:17:07;;;;;;;;;17.75;17.00;;;;;-147.17;100.00;49899.16;4973818;28;51060;-58
2021/12/25 05:19:33;;;;;;;;;19.25;18.75;;;;;-147.17;100.00;49891.28;4970333;28;51279;-58
2021/12/25 05:21:58;;;;;;;;;16.25;14.50;;;;;-147.17;100.00;49883.41;4960434;28;51934;-58
2021/12/25 05:24:24;;;;;;;;;18.00;17.25;;;;;-147.17;100.00;49889.31;4956370;28;51038;-58
2021/12/25 05:26:49;;;;;;;;;19.50;18.75;;;;;-147.17;100.00;49891.28;4971597;28;51520;-58
2021/12/25 05:29:22;;;;;;;;;18.00;17.75;;;;;-147.17;100.00;49863.72;4984134;28;51111;-58
2021/12/25 05:31:48;;;;;;;;;19.00;15.00;;;;;-147.17;100.00;49871.59;4968470;28;51176;-58
2021/12/25 05:34:13;;;;;;;;;18.75;16.50;;;;;-147.17;100.00;49855.84;4969489;28;51058;-58
2021/12/25 05:36:39;;;;;;;;;16.50;16.25;;;;;-147.17;100.00;49883.41;4954478;28;51278;-58
2021/12/25 05:39:08;;;;;;;;;20.00;18.75;;;;;-147.17;100.00;49855.84;4953960;28;51192;-58
2021/12/25 05:41:34;;;;;;;;;17.00;15.75;;;;;-147.17;100.00;49867.66;4965863;28;52675;-58
2021/12/25 05:43:59;;;;;;;;;22.75;17.50;;;;;-147.17;100.00;49871.59;4967666;28;51134;-57
2021/12/25 05:46:24;;;;;;;;;18.50;17.00;;;;;-147.17;100.00;49861.75;4960257;28;50929;-58
2021/12/25 05:48:50;;;;;;;;;21.50;20.25;;;;;-147.17;100.00;49859.78;4973493;28;51029;-57
2021/12/25 05:51:18;;;;;;;;;19.50;19.50;;;;;-147.17;100.00;49869.63;4962213;28;51913;-57
2021/12/25 05:53:43;;;;;;;;;18.75;18.25;;;;;-147.17;100.00;49836.16;4961264;28;51344;-58
2021/12/25 05:56:09;;;;;;;;;22.75;19.00;;;;;-147.17;100.00;49883.41;4964413;28;51114;-58
2021/12/25 05:58:34;;;;;;;;;19.25;17.75;;;;;-147.17;100.00;49903.09;4972502;28;51103;-58
2021/12/25 06:00:59;;;;;;;;;21.50;20.75;;;;;-147.17;100.00;49873.56;4971753;28;50998;-58
2021/12/25 06:03:25;;;;;;;;;15.50;15.50;;;;;-147.17;100.00;49863.72;4967332;28;52308;-58
2021/12/25 06:05:50;;;;;;;;;24.00;22.50;;;;;-147.17;100.00;49889.31;4970290;28;51315;-58
2021/12/25 06:08:16;;;;;;;;;18.25;16.00;;;;;-147.17;100.00;49885.38;4971415;28;51969;-58
2021/12/25 06:10:42;;;;;;;;;19.50;19.25;;;;;-147.17;100.00;49891.28;4957128;28;51811;-58
2021/12/25 06:13:11;;;;;;;;;18.50;18.25;;;;;-147.17;100.00;49879.47;4964738;28;50902;-58
2021/12/25 06:15:36;;;;;;;;;18.50;17.75;;;;;-147.17;100.00;49895.22;4967867;28;51202;-56
2021/12/25 06:18:02;;;;;;;;;21.25;18.75;;;;;-147.17;100.00;49851.91;4980183;28;51511;-57
2021/12/25 06:20:28;;;;;;;;;21.25;19.50;;;;;-147.17;100.00;49871.59;4974661;28;51302;-58
2021/12/25 06:22:53;;;;;;;;;26.50;22.00;;;;;-147.17;100.00;49836.16;4953410;28;52638;-56
2021/12/25 06:25:19;;;;;;;;;18.25;16.75;;;;;-147.17;100.00;49846.00;4967361;28;50877;-57
2021/12/25 06:27:44;;;;;;;;;21.50;19.75;;;;;-147.17;100.00;49885.38;4974808;28;51356;-57
2021/12/25 06:30:10;;;;;;;;;18.50;16.50;;;;;-147.17;100.00;49867.66;4976085;28;52694;-57
2021/12/25 06:32:36;;;;;;;;;23.75;21.75;;;;;-147.17;100.00;49832.22;4975178;28;50949;-56
2021/12/25 06:35:02;;;;;;;;;21.75;21.00;;;;;-147.17;100.00;49867.66;4975237;28;50973;-55
2021/12/25 06:37:27;;;;;;;;;22.00;21.00;;;;;-147.17;100.00;49914.91;4975095;28;51295;-56
2021/12/25 06:39:53;;;;;;;;;22.75;21.25;;;;;-147.17;100.00;49861.75;4974883;28;52231;-56
2021/12/25 06:42:18;;;;;;;;;23.75;22.25;;;;;-147.17;100.00;49859.78;4975137;28;51002;-55
2021/12/25 06:44:44;;;;;;;;;22.75;22.25;;;;;-147.17;100.00;49865.69;4974934;28;50953;-56
2021/12/25 06:47:10;;;;;;;;;21.00;20.25;;;;;-147.17;100.00;49863.72;4974635;28;51222;-55
2021/12/25 06:49:36;;;;;;;;;23.25;20.75;;;;;-147.17;100.00;49885.38;4973988;28;51333;-54
2021/12/25 06:52:01;;;;;;;;;20.75;19.75;;;;;-147.17;100.00;49871.59;4974643;28;51070;-56
2021/12/25 06:54:27;;;;;;;;;20.75;20.75;;;;;-147.17;100.00;49851.91;4974951;28;50960;-56
2021/12/25 06:56:53;;;;;;;;;21.00;19.00;;;;;-147.17;100.00;49903.09;4975193;28;51035;-56
2021/12/25 06:59:19;;;;;;;;;20.75;19.50;;;;;-147.17;100.00;49879.47;4969871;28;52917;-57
2021/12/25 07:01:44;;;;;;;;;23.00;21.00;;;;;-147.17;100.00;49877.50;4965194;28;51136;-57
2021/12/25 07:04:09;;;;;;;;;22.75;19.75;;;;;-147.17;100.00;49867.66;4974457;28;51603;-56
2021/12/25 07:06:37;;;;;;;;;19.75;18.25;;;;;-147.17;100.00;49887.34;4974590;28;51298;-57
2021/12/25 07:09:07;;;;;;;;;23.25;23.00;;;;;-147.17;100.00;49820.41;4974292;28;50965;-56
2021/12/25 07:11:33;;;;;;;;;22.25;21.50;;;;;-147.17;100.00;49824.34;4935576;28;1144727;-57
2021/12/25 07:14:02;;;;;;;;;27.25;24.75;;;;;-147.17;100.00;49859.78;4975403;28;51041;-57
2021/12/25 07:16:27;;;;;;;;;26.25;24.75;;;;;-147.17;100.00;49865.69;4975770;28;50899;-57
2021/12/25 07:18:52;;;;;;;;;27.75;23.00;;;;;-147.17;100.00;49840.09;4975022;28;51883;-57
2021/12/25 07:21:18;;;;;;;;;24.25;23.00;;;;;-147.17;100.00;49879.47;4975117;28;50978;-62
2021/12/25 07:23:43;;;;;;;;;22.25;22.00;;;;;-147.17;100.00;49844.03;4975290;28;51005;-56
2021/12/25 07:26:09;;;;;;;;;25.00;21.75;;;;;-147.17;100.00;49879.47;4975617;28;51082;-57
2021/12/25 07:28:34;;;;;;;;;21.50;19.75;;;;;-147.17;100.00;49842.06;4974821;28;51158;-57
2021/12/25 07:31:00;;;;;;;;;25.00;22.50;;;;;-147.17;100.00;49859.78;4975291;28;51130;-57
2021/12/25 07:33:28;;;;;;;;;22.75;22.25;;;;;-147.17;100.00;49891.28;4975328;28;51302;-57
2021/12/25 07:35:55;;;;;;;;;20.50;20.50;;;;;-147.17;100.00;49889.31;4974566;28;51035;-56
2021/12/25 07:38:21;;;;;;;;;20.00;20.00;;;;;-147.17;100.00;49899.16;4974193;28;51064;-56
2021/12/25 07:40:47;;;;;;;;;21.00;20.75;;;;;-147.17;100.00;49883.41;4975131;28;51113;-56
2021/12/25 07:43:12;;;;;;;;;20.50;20.00;;;;;-147.17;100.00;49903.09;4975091;28;50869;-57
2021/12/25 07:45:38;;;;;;;;;22.25;22.25;;;;;-147.17;100.00;49891.28;4975592;28;51016;-56
2021/12/25 07:48:04;;;;;;;;;22.25;22.00;;;;;-147.17;100.00;49836.16;4974835;28;51583;-61
2021/12/25 07:50:31;;;;;;;;;25.25;21.00;;;;;-147.17;100.00;49865.69;4973731;28;51175;-55
2021/12/25 07:52:58;;;;;;;;;22.50;20.75;;;;;-147.17;100.00;49840.09;4973724;28;51166;-55
2021/12/25 07:55:24;;;;;;;;;25.50;24.00;;;;;-147.17;100.00;49867.66;4975279;28;51039;-57
2021/12/25 07:57:50;;;;;;;;;21.00;20.00;;;;;-147.17;100.00;49847.97;4974537;28;51714;-56
2021/12/25 08:00:17;;;;;;;;;23.75;20.75;;;;;-147.17;100.00;49853.88;4975126;28;51087;-55
2021/12/25 08:02:45;;;;;;;;;22.00;21.00;;;;;-147.17;100.00;49883.41;4974190;28;51065;-56
2021/12/25 08:05:10;;;;;;;;;22.75;20.75;;;;;-147.17;100.00;49851.91;4974871;28;51081;-55
2021/12/25 08:07:37;;;;;;;;;24.50;22.25;;;;;-147.17;100.00;49887.34;4974011;28;51169;-55
2021/12/25 08:10:13;;;;;;;;;22.50;21.75;;;;;-147.17;100.00;49907.03;4974540;28;51075;-56
2021/12/25 08:12:53;;;;;;;;;19.50;19.25;;;;;-147.17;100.00;49867.66;4958593;28;51254;-56
2021/12/25 08:15:23;;;;;;;;;26.75;21.25;;;;;-147.17;100.00;49867.66;4974655;28;51349;-56
2021/12/25 08:17:49;;;;;;;;;25.50;22.50;;;;;-147.17;100.00;49875.53;4974610;28;52328;-57
2021/12/25 08:20:15;;;;;;;;;21.00;19.50;;;;;-147.17;100.00;49867.66;4974324;28;50996;-56
2021/12/25 08:22:41;;;;;;;;;23.00;22.75;;;;;-147.17;100.00;49883.41;4974535;28;50957;-55
2021/12/25 08:25:08;;;;;;;;;26.50;21.25;;;;;-147.17;100.00;49907.03;4974380;28;51091;-55
2021/12/25 08:27:34;;;;;;;;;23.00;22.00;;;;;-147.17;100.00;49887.34;4974127;28;51079;-57
2021/12/25 08:30:00;;;;;;;;;24.00;20.25;;;;;-147.17;100.00;49887.34;4967448;28;51172;-56
2021/12/25 08:32:26;;;;;;;;;21.25;21.00;;;;;-147.17;100.00;49840.09;4974595;28;50905;-56
2021/12/25 08:34:52;;;;;;;;;22.75;22.00;;;;;-147.17;100.00;49853.88;4974490;28;50904;-57
2021/12/25 08:37:24;;;;;;;;;21.00;20.00;;;;;-147.17;100.00;49863.72;4972692;28;53762;-57
2021/12/25 08:39:54;;;;;;;;;21.25;20.25;;;;;-147.17;100.00;49847.97;4958483;28;51090;-57
2021/12/25 08:42:20;;;;;;;;;24.00;21.50;;;;;-147.17;100.00;49818.44;4954738;28;51047;-57
2021/12/25 08:47:25;;;;;;;;;25.50;22.75;;;;;-147.17;100.00;49857.81;4954199;28;51667;-57
2021/12/25 08:49:50;;;;;;;;;23.25;22.00;;;;;-147.17;100.00;49895.22;4954293;28;50977;-56
2021/12/25 08:52:17;;;;;;;;;24.75;22.50;;;;;-147.17;100.00;49867.66;4953225;28;50937;-57
2021/12/25 08:54:44;;;;;;;;;25.00;22.00;;;;;-147.17;100.00;49871.59;4954692;28;51381;-57
2021/12/25 08:57:11;;;;;;;;;24.25;22.25;;;;;-147.17;100.00;49857.81;4954396;28;51813;-57
2021/12/25 08:59:38;;;;;;;;;24.25;23.50;;;;;-147.17;100.00;49887.34;4954301;28;50956;-57
2021/12/25 09:02:08;;;;;;;;;20.75;18.25;;;;;-147.17;100.00;49877.50;4954468;28;51051;-58
2021/12/25 09:04:35;;;;;;;;;23.00;19.75;;;;;-147.17;100.00;49879.47;4966923;28;51337;-57
2021/12/25 09:07:01;;;;;;;;;21.50;21.00;;;;;-147.17;100.00;49883.41;4953885;28;51895;-56
2021/12/25 09:09:26;;;;;;;;;21.25;19.50;;;;;-147.17;100.00;49883.41;4954093;28;51045;-57
2021/12/25 09:11:52;;;;;;;;;20.75;19.75;;;;;-147.17;100.00;49895.22;4954284;28;50948;-57
2021/12/25 09:14:17;;;;;;;;;19.75;19.75;;;;;-147.17;100.00;49918.84;4954406;28;51004;-57
2021/12/25 09:16:42;;;;;;;;;21.50;20.50;;;;;-147.17;100.00;49875.53;4954150;28;50918;-57
2021/12/25 09:19:08;;;;;;;;;17.50;17.25;;;;;-147.17;100.00;49912.94;4954091;28;50960;-56
2021/12/25 09:21:33;;;;;;;;;22.00;18.25;;;;;-147.17;100.00;49875.53;4954035;28;50965;-57
2021/12/25 09:23:59;;;;;;;;;15.33;15.00;;;;;-147.17;100.00;49863.72;4954278;28;50937;-57
2021/12/25 09:26:24;;;;;;;;;20.50;18.00;;;;;-147.17;100.00;49899.16;4971177;28;52964;-57
2021/12/25 09:28:50;;;;;;;;;17.00;16.33;;;;;-147.17;100.00;49895.22;4973358;28;51181;-57
2021/12/25 09:31:16;;;;;;;;;20.75;19.25;;;;;-147.17;100.00;49889.31;4973627;28;51043;-57
2021/12/25 09:33:42;;;;;;;;;19.33;17.67;;;;;-147.17;100.00;49916.88;4973734;28;50942;-57
2021/12/25 09:36:07;;;;;;;;;20.67;18.33;;;;;-147.17;100.00;49912.94;4973082;28;51007;-57
2021/12/25 09:38:34;;;;;;;;;21.00;20.00;;;;;-147.17;100.00;49954.25;4973113;28;50992;-58
2021/12/25 09:41:01;;;;;;;;;18.67;17.00;;;;;-147.17;100.00;49901.13;4973290;28;51164;-57
2021/12/25 09:43:26;;;;;;;;;13.33;11.67;;;;;-147.17;100.00;49889.31;4973201;28;51139;-56
2021/12/25 09:45:52;;;;;;;;;15.67;14.00;;;;;-147.17;100.00;49895.22;4972999;28;51701;-57
2021/12/25 09:48:18;;;;;;;;;15.00;14.67;;;;;-147.17;100.00;49899.16;4973192;28;50948;-57
2021/12/25 09:50:43;;;;;;;;;18.67;14.33;;;;;-147.17;100.00;49918.84;4972772;28;51075;-56
2021/12/25 09:53:12;;;;;;;;;17.00;16.00;;;;;-147.17;100.00;49893.25;4973401;28;51097;-57
2021/12/25 09:55:38;;;;;;;;;17.00;16.67;;;;;-147.17;100.00;49895.22;4973270;28;53140;-56
2021/12/25 09:58:04;;;;;;;;;17.25;16.75;;;;;-147.17;100.00;49899.16;4972987;28;51151;-56
2021/12/25 10:00:30;;;;;;;;;14.33;13.67;;;;;-147.17;100.00;49893.25;4975046;28;50892;-57
2021/12/25 10:02:57;;;;;;;;;14.33;14.33;;;;;-147.17;100.00;49889.31;4975833;28;51388;-57
2021/12/25 10:05:31;;;;;;;;;15.33;15.00;;;;;-147.17;100.00;49891.28;4976487;28;50952;-58
2021/12/25 10:08:00;;;;;;;;;17.00;17.00;;;;;-147.17;100.00;49895.22;4976467;28;51034;-57
2021/12/25 10:10:35;;;;;;;;;18.67;17.33;;;;;-147.17;100.00;49934.56;4975143;28;51298;-57
2021/12/25 10:13:01;;;;;;;;;18.25;17.00;;;;;-147.17;100.00;49910.97;4975354;28;51024;-58
2021/12/25 10:15:28;;;;;;;;;17.33;17.00;;;;;-147.17;100.00;49914.91;4975963;28;51913;-57
2021/12/25 10:17:56;;;;;;;;;19.00;17.50;;;;;-147.17;100.00;49926.69;4975276;28;51100;-58
2021/12/25 10:20:28;;;;;;;;;18.33;17.33;;;;;-147.17;100.00;49940.47;4976195;28;50976;-58
2021/12/25 10:23:15;;;;;;;;;15.33;14.33;;;;;-147.17;100.00;49912.94;4976578;28;51094;-57
2021/12/25 10:25:45;;;;;;;;;18.67;17.00;;;;;-147.17;100.00;49909.00;4975933;28;51792;-58
2021/12/25 10:28:12;;;;;;;;;23.00;21.50;;;;;-147.17;100.00;49914.91;4976183;28;51059;-57
2021/12/25 10:30:58;;;;;;;;;16.00;16.00;;;;;-147.17;100.00;49942.44;4969366;28;51185;-57
2021/12/25 10:33:41;;;;;;;;;13.00;13.00;;;;;-147.17;100.00;49966.06;4965114;28;51253;-56
2021/12/25 10:36:27;;;;;;;;;15.00;13.00;;;;;-147.17;100.00;49930.63;4958390;28;51462;-56
2021/12/25 10:39:08;;;;;;;;;14.00;13.00;;;;;-147.17;100.00;49944.41;4954956;28;51132;-56
2021/12/25 10:41:37;;;;;;;;;21.00;18.75;;;;;-147.17;100.00;49948.34;4955349;28;51047;-56
2021/12/25 10:44:15;;;;;;;;;16.00;13.00;;;;;-147.17;100.00;49926.69;4956436;28;51030;-56
2021/12/25 10:47:00;;;;;;;;;18.00;17.00;;;;;-147.17;100.00;49971.97;4956225;28;52173;-57
2021/12/25 10:49:30;;;;;;;;;13.00;13.00;;;;;-147.17;100.00;49950.31;4963718;28;50975;-57
2021/12/25 10:52:10;;;;;;;;;15.33;14.00;;;;;-147.17;100.00;49987.72;4975711;28;50972;-57
2021/12/25 10:54:43;;;;;;;;;16.33;16.00;;;;;-147.17;100.00;49968.03;4976278;28;50873;-57
2021/12/25 10:57:09;;;;;;;;;15.33;15.00;;;;;-147.17;100.00;49970.00;4975339;28;51109;-57
2021/12/25 11:00:04;;;;;;;;;13.00;13.00;;;;;-147.17;100.00;49920.81;4975662;28;51129;-56
2021/12/25 11:02:36;;;;;;;;;15.67;15.00;;;;;-147.17;100.00;49918.84;4961036;28;51326;-57
2021/12/25 11:05:32;;;;;;;;;20.67;17.33;;;;;-147.17;100.00;49966.06;4960743;28;50985;-60
2021/12/25 11:08:05;;;;;;;;;15.67;14.67;;;;;-147.17;100.00;49942.44;4943650;28;51006;-57
2021/12/25 11:10:31;;;;;;;;;16.67;15.67;;;;;-147.17;100.00;49950.31;4962410;28;51022;-57
2021/12/25 11:12:58;;;;;;;;;15.75;15.50;;;;;-147.17;100.00;49922.78;4975447;28;51338;-57
2021/12/25 11:15:34;;;;;;;;;19.33;18.33;;;;;-147.17;100.00;49940.47;4975631;28;51097;-57
2021/12/25 11:18:07;;;;;;;;;16.00;15.00;;;;;-147.17;100.00;49910.97;4973557;28;51896;-57
2021/12/25 11:20:39;;;;;;;;;14.67;13.67;;;;;-147.17;100.00;49962.13;4975085;28;51082;-57
2021/12/25 11:23:07;;;;;;;;;16.67;15.67;;;;;-147.17;100.00;49948.34;4975303;28;51016;-57
2021/12/25 11:25:34;;;;;;;;;18.67;16.67;;;;;-147.17;100.00;49910.97;4975428;28;51170;-57
2021/12/25 11:28:03;;;;;;;;;16.33;16.00;;;;;-147.17;100.00;49918.84;4974823;28;52346;-57
2021/12/25 11:30:33;;;;;;;;;20.33;18.00;;;;;-147.17;100.00;49871.59;4975031;28;51078;-57
2021/12/25 11:33:00;;;;;;;;;18.50;18.25;;;;;-147.17;100.00;49930.63;4975165;28;51056;-57
2021/12/25 11:35:26;;;;;;;;;19.00;18.00;;;;;-147.17;100.00;49905.06;4974697;28;51131;-57
2021/12/25 11:37:55;;;;;;;;;20.67;18.33;;;;;-147.17;100.00;49914.91;4974703;28;51841;-57
2021/12/25 11:40:23;;;;;;;;;20.00;19.50;;;;;-147.17;100.00;49893.25;4975127;28;51084;-57
2021/12/25 11:42:56;;;;;;;;;16.67;16.67;;;;;-147.17;100.00;49914.91;4973919;28;51075;-57
2021/12/25 11:45:47;;;;;;;;;23.25;21.25;;;;;-147.17;100.00;49887.34;4975248;28;51054;-57
2021/12/25 11:48:18;;;;;;;;;20.00;19.00;;;;;-147.17;100.00;49881.44;4974579;28;52118;-58
2021/12/25 11:50:47;;;;;;;;;18.25;16.25;;;;;-147.17;100.00;49871.59;4974463;28;51095;-57
2021/12/25 11:53:26;;;;;;;;;21.25;21.00;;;;;-147.17;100.00;49875.53;4973560;28;51184;-59
2021/12/25 11:58:53;;;;;;;;;17.67;17.33;;;;;-147.17;100.00;49853.88;4974547;28;50959;-61
2021/12/25 12:01:32;;;;;;;;;22.00;20.50;;;;;-147.17;100.00;49867.66;4974545;28;51070;-57
2021/12/25 12:04:03;;;;;;;;;23.75;20.00;;;;;-147.17;100.00;49855.84;4974193;28;51067;-57
2021/12/25 12:06:44;;;;;;;;;21.75;20.75;;;;;-147.17;100.00;49893.25;4974736;28;50949;-57
2021/12/25 12:09:12;;;;;;;;;18.00;18.00;;;;;-147.17;100.00;49881.44;4973942;28;52301;-57
2021/12/25 12:11:40;;;;;;;;;23.00;20.00;;;;;-147.17;100.00;49873.56;4974297;28;50987;-56
2021/12/25 12:14:20;;;;;;;;;18.25;17.50;;;;;-147.17;100.00;49867.66;4974571;28;51162;-57
2021/12/25 12:16:50;;;;;;;;;21.75;20.50;;;;;-147.17;100.00;49847.97;4974708;28;51184;-58
2021/12/25 12:19:37;;;;;;;;;26.00;23.00;;;;;-147.17;100.00;49861.75;4974139;28;51837;-57